createdAt,value
2022-12-26T00:03:53.546Z,-4.60
2022-12-26T00:08:55.972Z,-4.50
2022-12-26T00:14:05.284Z,-4.60
2022-12-26T00:19:07.332Z,-4.60
2022-12-26T00:24:11.859Z,-4.60
2022-12-26T00:29:13.807Z,-4.60
2022-12-26T00:34:15.720Z,-4.70
2022-12-26T00:39:17.684Z,-4.70
2022-12-26T00:44:19.459Z,-4.70
2022-12-26T00:49:21.234Z,-4.70
2022-12-26T00:54:23.034Z,-4.70
2022-12-26T00:59:24.886Z,-4.70
2022-12-26T01:04:28.192Z,-4.70
2022-12-26T01:09:29.905Z,-4.90
2022-12-26T01:14:31.690Z,-4.80
2022-12-26T01:19:33.445Z,-4.90
2022-12-26T01:24:35.203Z,-4.70
2022-12-26T01:29:37.071Z,-4.80
2022-12-26T01:34:38.941Z,-4.80
2022-12-26T01:39:40.732Z,-4.90
2022-12-26T01:45:00.959Z,-4.90
2022-12-26T01:50:02.949Z,-4.90
2022-12-26T01:55:08.427Z,-4.90
2022-12-26T02:00:11.769Z,-4.80
2022-12-26T02:05:32.338Z,-4.80
2022-12-26T02:10:56.108Z,-4.80
2022-12-26T02:15:57.959Z,-4.80
2022-12-26T02:21:29.452Z,-4.80
2022-12-26T02:26:55.411Z,-4.70
2022-12-26T02:32:26.170Z,-4.70
2022-12-26T02:37:52.448Z,-4.70
2022-12-26T02:43:12.172Z,-4.70
2022-12-26T02:48:23.551Z,-4.70
2022-12-26T02:54:05.391Z,-4.80
2022-12-26T02:59:54.063Z,-4.80
2022-12-26T03:05:17.945Z,-4.80
2022-12-26T03:10:51.137Z,-4.80
2022-12-26T03:16:20.025Z,-4.80
2022-12-26T03:21:26.031Z,-4.70
2022-12-26T03:26:42.030Z,-4.70
2022-12-26T03:31:43.944Z,-4.80
2022-12-26T03:37:16.452Z,-4.80
2022-12-26T03:42:44.211Z,-4.80
2022-12-26T03:48:15.221Z,-4.70
2022-12-26T03:53:42.250Z,-4.60
2022-12-26T03:59:10.305Z,-4.60
2022-12-26T04:04:34.031Z,-4.70
2022-12-26T04:10:04.641Z,-4.60
2022-12-26T04:15:35.625Z,-4.50
2022-12-26T04:20:43.633Z,-4.50
2022-12-26T04:26:07.990Z,-4.50
2022-12-26T04:31:33.724Z,-4.40
2022-12-26T04:37:02.756Z,-4.30
2022-12-26T04:42:23.954Z,-4.30
2022-12-26T04:47:25.940Z,-4.10
2022-12-26T04:52:51.412Z,-4.20
2022-12-26T04:57:53.648Z,-4.10
2022-12-26T05:03:19.108Z,-4.10
2022-12-26T05:08:53.178Z,-4.00
2022-12-26T05:13:57.296Z,-3.90
2022-12-26T05:19:17.843Z,-3.90
2022-12-26T05:24:38.891Z,-4.00
2022-12-26T05:29:40.985Z,-4.00
2022-12-26T05:34:43.856Z,-3.90
2022-12-26T05:39:45.575Z,-3.80
2022-12-26T05:44:47.992Z,-3.80
2022-12-26T05:49:49.736Z,-3.70
2022-12-26T05:54:51.437Z,-3.70
2022-12-26T05:59:53.226Z,-3.70
2022-12-26T06:04:54.953Z,-3.60
2022-12-26T06:09:57.836Z,-3.60
2022-12-26T06:14:59.582Z,-3.60
2022-12-26T06:20:01.360Z,-3.60
2022-12-26T06:25:03.300Z,-3.60
2022-12-26T06:30:05.619Z,-3.50
2022-12-26T06:35:07.707Z,-3.60
2022-12-26T06:40:10.121Z,-3.60
2022-12-26T06:45:12.978Z,-3.50
2022-12-26T06:50:14.757Z,-3.50
2022-12-26T06:55:16.576Z,-3.50
2022-12-26T07:00:18.791Z,-3.50
2022-12-26T07:05:20.552Z,-3.40
2022-12-26T07:10:22.408Z,-3.50
2022-12-26T07:15:24.173Z,-3.50
2022-12-26T07:20:25.990Z,-3.40
2022-12-26T07:25:27.854Z,-3.40
2022-12-26T07:30:29.726Z,-3.40
2022-12-26T07:35:31.515Z,-3.40
2022-12-26T07:40:33.286Z,-3.30
2022-12-26T07:45:38.047Z,-3.40
2022-12-26T07:50:47.391Z,-3.30
2022-12-26T07:55:49.642Z,-3.30
2022-12-26T08:00:51.497Z,-3.20
2022-12-26T08:05:53.265Z,-3.20
2022-12-26T08:11:02.717Z,-3.10
2022-12-26T08:16:09.633Z,-3.10
2022-12-26T08:21:12.043Z,-3.10
2022-12-26T08:26:20.672Z,-3.10
2022-12-26T08:31:22.852Z,-3.00
2022-12-26T08:36:25.236Z,-3.00
2022-12-26T08:41:27.010Z,-2.90
2022-12-26T08:46:28.758Z,-2.90
2022-12-26T08:51:30.720Z,-2.90
2022-12-26T08:56:32.838Z,-2.80
2022-12-26T09:01:34.753Z,-2.90
2022-12-26T09:06:38.521Z,-2.90
2022-12-26T09:11:42.024Z,-2.70
2022-12-26T09:16:50.366Z,-2.70
2022-12-26T09:22:12.860Z,-2.70
2022-12-26T09:27:14.611Z,-2.60
2022-12-26T09:32:16.395Z,-2.60
2022-12-26T09:37:18.143Z,-2.50
2022-12-26T09:42:41.815Z,-2.50
2022-12-26T09:47:58.248Z,-2.30
2022-12-26T09:53:05.387Z,-2.30
2022-12-26T09:58:25.159Z,-2.40
2022-12-26T10:03:27.621Z,-2.40
2022-12-26T10:08:57.856Z,-2.40
2022-12-26T10:14:23.472Z,-2.20
2022-12-26T10:19:34.026Z,-2.20
2022-12-26T10:24:38.689Z,-2.30
2022-12-26T10:29:53.256Z,-2.30
2022-12-26T10:34:55.303Z,-2.20
2022-12-26T10:40:16.364Z,-2.20
2022-12-26T10:45:25.120Z,-2.30
2022-12-26T10:50:30.554Z,-2.30
2022-12-26T10:55:35.420Z,-2.30
2022-12-26T11:00:37.275Z,-2.30
2022-12-26T11:11:17.720Z,-2.30
2022-12-26T11:16:35.499Z,-2.30
2022-12-26T11:21:37.316Z,-2.40
2022-12-26T11:26:39.140Z,-2.40
2022-12-26T11:31:43.262Z,-2.40
2022-12-26T11:36:48.362Z,-2.40
2022-12-26T11:41:51.201Z,-2.50
2022-12-26T11:46:56.221Z,-2.60
2022-12-26T11:52:00.679Z,-2.60
2022-12-26T11:57:17.914Z,-2.60
2022-12-26T12:02:22.963Z,-2.60
2022-12-26T12:07:46.772Z,-2.70
2022-12-26T12:13:17.947Z,-2.70
2022-12-26T12:18:50.694Z,-2.80
2022-12-26T12:24:16.130Z,-2.90
2022-12-26T12:29:42.400Z,-3.00
2022-12-26T12:34:44.040Z,-3.00
2022-12-26T12:39:57.449Z,-3.00
2022-12-26T12:45:22.100Z,-3.10
2022-12-26T12:50:54.635Z,-3.20
2022-12-26T12:56:05.199Z,-3.30
2022-12-26T13:01:23.426Z,-3.30
2022-12-26T13:06:31.425Z,-3.40
2022-12-26T13:11:40.161Z,-3.60
2022-12-26T13:17:06.557Z,-3.60
2022-12-26T13:22:27.863Z,-3.60
2022-12-26T13:27:33.949Z,-3.60
2022-12-26T13:32:35.687Z,-3.60
2022-12-26T13:37:40.500Z,-3.70
2022-12-26T13:43:12.316Z,-3.60
2022-12-26T13:48:17.144Z,-3.70
2022-12-26T13:53:24.860Z,-3.80
2022-12-26T13:58:32.951Z,-3.80
2022-12-26T14:03:44.271Z,-3.80
2022-12-26T14:09:17.017Z,-3.80
2022-12-26T14:14:37.317Z,-3.90
2022-12-26T14:19:43.573Z,-3.90
2022-12-26T14:25:14.913Z,-4.10
2022-12-26T14:30:24.481Z,-4.10
2022-12-26T14:36:04.184Z,-4.10
2022-12-26T14:41:30.000Z,-4.00
2022-12-26T14:46:31.881Z,-4.10
2022-12-26T14:51:37.001Z,-4.20
2022-12-26T14:56:38.919Z,-4.20
2022-12-26T15:01:40.860Z,-4.10
2022-12-26T15:07:20.369Z,-4.10
2022-12-26T15:12:46.712Z,-4.10
2022-12-26T15:18:26.021Z,-4.20
2022-12-26T15:23:50.573Z,-4.20
2022-12-26T15:29:25.488Z,-4.20
2022-12-26T15:34:32.944Z,-4.20
2022-12-26T15:39:39.441Z,-4.30
2022-12-26T15:45:27.989Z,-4.30
2022-12-26T15:50:47.688Z,-4.30
2022-12-26T15:55:52.591Z,-4.20
2022-12-26T16:00:55.542Z,-4.30
2022-12-26T16:06:28.489Z,-4.30
2022-12-26T16:11:43.234Z,-4.40
2022-12-26T16:16:45.042Z,-4.50
2022-12-26T16:22:11.650Z,-4.40
2022-12-26T16:27:19.223Z,-4.50
2022-12-26T16:32:26.954Z,-4.50
2022-12-26T16:37:30.363Z,-4.50
2022-12-26T16:42:33.354Z,-4.50
2022-12-26T16:47:35.858Z,-4.50
2022-12-26T16:52:45.898Z,-4.60
2022-12-26T16:57:50.575Z,-4.60
2022-12-26T17:02:56.349Z,-4.60
2022-12-26T17:08:01.747Z,-4.50
2022-12-26T17:13:09.576Z,-4.60
2022-12-26T17:18:39.571Z,-4.60
2022-12-26T17:23:42.216Z,-4.60
2022-12-26T17:28:44.000Z,-4.70
2022-12-26T17:33:48.238Z,-4.70
2022-12-26T17:38:50.216Z,-4.80
2022-12-26T17:43:52.885Z,-4.60
2022-12-26T17:48:54.978Z,-4.60
2022-12-26T17:53:56.701Z,-4.70
2022-12-26T17:58:58.463Z,-4.60
2022-12-26T18:04:00.213Z,-4.50
2022-12-26T18:09:02.210Z,-4.60
2022-12-26T18:14:03.950Z,-4.60
2022-12-26T18:19:05.764Z,-4.50
2022-12-26T18:24:07.725Z,-4.60
2022-12-26T18:29:10.412Z,-4.60
2022-12-26T18:34:12.169Z,-4.70
2022-12-26T18:39:16.027Z,-4.60
2022-12-26T18:44:19.259Z,-4.60
2022-12-26T18:49:21.073Z,-4.60
2022-12-26T18:54:22.809Z,-4.60
2022-12-26T18:59:24.551Z,-4.60
2022-12-26T19:04:26.846Z,-4.60
2022-12-26T19:09:28.789Z,-4.60
2022-12-26T19:14:30.494Z,-4.60
2022-12-26T19:19:32.247Z,-4.50
2022-12-26T19:24:34.211Z,-4.60
2022-12-26T19:29:36.044Z,-4.70
2022-12-26T19:34:37.785Z,-4.60
2022-12-26T19:39:39.516Z,-4.60
2022-12-26T19:44:41.303Z,-4.60
2022-12-26T19:49:43.406Z,-4.60
2022-12-26T19:54:45.208Z,-4.60
2022-12-26T19:59:46.929Z,-4.60
2022-12-26T20:04:48.665Z,-4.60
2022-12-26T20:09:50.656Z,-4.60
2022-12-26T20:14:52.560Z,-4.50
2022-12-26T20:19:54.402Z,-4.50
2022-12-26T20:24:56.119Z,-4.50
2022-12-26T20:29:57.837Z,-4.50
2022-12-26T20:34:59.550Z,-4.40
2022-12-26T20:40:01.296Z,-4.40
2022-12-26T20:45:03.180Z,-4.40
2022-12-26T20:50:05.580Z,-4.40
2022-12-26T20:55:07.684Z,-4.30
2022-12-26T21:00:10.219Z,-4.30
2022-12-26T21:05:12.049Z,-4.30
2022-12-26T21:10:13.963Z,-4.30
2022-12-26T21:15:15.748Z,-4.30
2022-12-26T21:20:17.585Z,-4.20
2022-12-26T21:25:19.651Z,-4.20
2022-12-26T21:30:21.487Z,-4.20
2022-12-26T21:35:23.237Z,-4.20
2022-12-26T21:40:27.529Z,-4.10
2022-12-26T21:45:29.288Z,-4.10
2022-12-26T21:50:31.084Z,-4.00
2022-12-26T21:55:36.345Z,-4.00
2022-12-26T22:00:38.361Z,-4.00
2022-12-26T22:05:41.436Z,-4.00
2022-12-26T22:11:04.517Z,-4.00
2022-12-26T22:16:09.272Z,-3.90
2022-12-26T22:21:12.277Z,-3.80
2022-12-26T22:26:15.560Z,-3.80
2022-12-26T22:31:21.981Z,-3.80
2022-12-26T22:36:24.679Z,-3.70
2022-12-26T22:41:27.264Z,-3.60
2022-12-26T22:46:29.198Z,-3.60
2022-12-26T22:51:31.072Z,-3.60
2022-12-26T22:56:33.908Z,-3.60
2022-12-26T23:01:35.689Z,-3.60
2022-12-26T23:06:38.034Z,-3.60
2022-12-26T23:11:40.236Z,-3.50
2022-12-26T23:16:53.014Z,-3.40
2022-12-26T23:21:55.660Z,-3.40
2022-12-26T23:27:18.461Z,-3.30
2022-12-26T23:32:20.222Z,-3.30
2022-12-26T23:37:21.994Z,-3.30
2022-12-26T23:42:23.728Z,-3.30
2022-12-26T23:47:25.504Z,-3.20
2022-12-26T23:52:30.582Z,-3.20
2022-12-26T23:57:32.557Z,-3.20
